Time;durP1;ratioP1;P1;durP2;ratioP2;P2;SDS_P1;SDS_P2;PMS_P1;PMS_P2;Temp;Humidity;BMP_temperature;BMP_pressure;BME280_temperature;BME280_humidity;BME280_pressure;Samples;Min_cycle;Max_cycle;Signal;HPM_P1;HPM_P2
2022/02/02 00:02:09;;;;;;;16.70;9.80;;;;;;;0.92;75.53;94579.94;5030008;28;20032;-78
2022/02/02 00:04:41;;;;;;;14.88;9.32;;;;;;;0.89;75.89;94575.75;5046973;28;20119;-76
2022/02/02 00:09:32;;;;;;;15.02;8.88;;;;;;;0.90;76.00;94571.31;5046445;28;20495;-76
2022/02/02 00:19:59;;;;;;;18.75;9.00;;;;;;;0.85;75.49;94571.75;5041103;28;20047;-77
2022/02/02 00:22:32;;;;;;;14.23;8.73;;;;;;;0.81;76.49;94571.16;5047697;28;20480;-75
2022/02/02 00:25:21;;;;;;;14.20;8.80;;;;;;;0.91;75.02;94570.34;5029300;28;20535;-77
2022/02/02 00:27:51;;;;;;;17.38;8.20;;;;;;;0.92;75.42;94567.56;5046770;28;20468;-77
2022/02/02 00:30:17;;;;;;;13.30;7.78;;;;;;;0.87;75.08;94561.88;5047923;28;20117;-76
2022/02/02 00:33:08;;;;;;;19.20;9.75;;;;;;;0.88;75.99;94560.91;5028824;28;20033;-76
2022/02/02 00:35:39;;;;;;;13.95;8.25;;;;;;;0.93;75.76;94556.03;5033090;28;20083;-77
2022/02/02 00:38:04;;;;;;;13.20;7.95;;;;;;;0.93;75.48;94556.03;5046863;28;20403;-76
2022/02/02 00:40:30;;;;;;;14.45;8.60;;;;;;;0.92;75.34;94556.19;5046764;28;20091;-75
2022/02/02 00:42:55;;;;;;;14.48;8.43;;;;;;;0.88;75.78;94562.69;5047557;28;20021;-76
2022/02/02 00:45:24;;;;;;;17.17;8.93;;;;;;;0.90;76.28;94550.19;5046260;28;20029;-75
2022/02/02 00:47:51;;;;;;;16.83;8.68;;;;;;;0.94;75.63;94556.84;5046213;28;20476;-76
2022/02/02 00:50:17;;;;;;;20.85;8.50;;;;;;;0.97;74.97;94559.22;5046087;28;20451;-75
2022/02/02 00:52:43;;;;;;;14.48;7.80;;;;;;;0.98;75.72;94566.19;5045792;28;20029;-76
2022/02/02 00:55:08;;;;;;;14.73;8.38;;;;;;;0.85;75.96;94559.34;5046194;28;20033;-76
2022/02/02 00:57:34;;;;;;;14.93;9.25;;;;;;;0.80;76.28;94558.13;5028795;28;20021;-75
2022/02/02 00:59:59;;;;;;;12.90;8.05;;;;;;;0.85;75.29;94556.72;5045469;28;20025;-76
2022/02/02 01:02:25;;;;;;;14.88;8.95;;;;;;;0.95;74.88;94547.97;5046149;28;20040;-75
2022/02/02 01:04:50;;;;;;;18.02;9.38;;;;;;;1.03;74.44;94542.00;5045726;28;20052;-77
2022/02/02 01:07:43;;;;;;;14.80;8.77;;;;;;;1.01;74.61;94539.50;5046376;28;20045;-77
2022/02/02 01:10:18;;;;;;;16.42;8.52;;;;;;;1.00;74.35;94529.06;5032213;28;20033;-76
2022/02/02 01:16:28;;;;;;;16.20;8.73;;;;;;;0.90;75.29;94518.50;5045838;28;20439;-76
2022/02/02 01:18:35;;;;;;;13.88;8.60;;;;;;;0.94;75.08;94515.44;5046433;28;20052;-76
2022/02/02 01:21:06;;;;;;;15.95;8.32;;;;;;;0.98;74.77;94508.09;5045000;28;20078;-76
2022/02/02 01:28:59;;;;;;;16.70;9.48;;;;;;;0.96;74.67;94508.22;5045812;28;20084;-77
2022/02/02 01:31:25;;;;;;;15.60;9.15;;;;;;;1.05;73.95;94506.53;5028299;28;20029;-77
2022/02/02 01:33:50;;;;;;;16.15;9.13;;;;;;;1.03;73.63;94491.81;5045998;28;20489;-77
2022/02/02 01:36:16;;;;;;;20.13;9.60;;;;;;;1.05;74.30;94495.97;5011289;28;20044;-76
2022/02/02 01:38:43;;;;;;;17.67;9.95;;;;;;;1.07;73.91;94488.75;5028178;28;20558;-77
2022/02/02 01:41:16;;;;;;;16.65;8.90;;;;;;;1.01;74.11;94473.47;5027999;28;20259;-77
2022/02/02 01:43:50;;;;;;;17.45;8.75;;;;;;;1.02;73.92;94472.50;5046472;28;20032;-75
2022/02/02 01:46:18;;;;;;;18.50;9.05;;;;;;;1.04;73.87;94461.78;5044296;28;20032;-76
2022/02/02 01:49:02;;;;;;;16.08;9.88;;;;;;;0.99;73.75;94464.84;5046043;28;20037;-77
2022/02/02 01:51:47;;;;;;;15.32;9.35;;;;;;;0.95;74.20;94474.03;5045882;28;20511;-77
2022/02/02 01:54:28;;;;;;;15.45;9.65;;;;;;;0.98;73.92;94465.84;5044382;28;20496;-77
2022/02/02 01:56:53;;;;;;;17.27;9.00;;;;;;;0.99;73.25;94459.56;5030620;28;20155;-77
2022/02/02 01:59:37;;;;;;;15.60;9.52;;;;;;;1.08;72.39;94463.19;5027570;28;20021;-77
2022/02/02 02:02:02;;;;;;;22.73;11.15;;;;;;;0.68;74.13;94468.50;5044811;28;20051;-77
2022/02/02 02:04:27;;;;;;;19.17;10.57;;;;;;;0.81;74.32;94462.94;5044431;28;20511;-76
2022/02/02 02:06:53;;;;;;;25.00;11.65;;;;;;;0.78;73.81;94452.66;5045558;28;20470;-77
2022/02/02 02:09:20;;;;;;;25.48;11.68;;;;;;;0.74;73.88;94440.72;5045042;28;20475;-77
2022/02/02 02:11:56;;;;;;;24.73;11.77;;;;;;;0.80;73.77;94445.44;5027355;28;20491;-75
2022/02/02 02:15:09;;;;;;;26.83;12.15;;;;;;;0.89;72.70;94433.19;5046785;28;20017;-77
2022/02/02 02:17:07;;;;;;;23.17;11.07;;;;;;;0.78;73.43;94431.53;5040050;28;20041;-77
2022/02/02 02:19:36;;;;;;;27.30;12.70;;;;;;;0.78;74.02;94431.53;5045930;28;20025;-76
2022/02/02 02:22:02;;;;;;;25.33;11.27;;;;;;;0.81;72.81;94433.91;5045703;28;20133;-77
2022/02/02 02:24:28;;;;;;;24.10;12.75;;;;;;;0.90;72.60;94434.88;5044104;28;20499;-76
2022/02/02 02:26:53;;;;;;;23.65;11.38;;;;;;;0.90;72.21;94434.88;5045971;28;20120;-77
2022/02/02 02:29:36;;;;;;;21.55;12.68;;;;;;;0.84;73.09;94430.13;5043920;28;20475;-77
2022/02/02 02:32:26;;;;;;;23.35;11.88;;;;;;;0.81;73.43;94436.53;5045800;28;20037;-77
2022/02/02 02:56:17;;;;;;;23.65;11.90;;;;;;;0.76;72.11;94438.75;5047776;28;20125;-76
2022/02/02 03:01:26;;;;;;;21.50;11.60;;;;;;;0.65;73.00;94437.13;5049150;28;20107;-77
2022/02/02 04:01:11;;;;;;;24.35;13.25;;;;;;;0.45;72.34;94421.28;5029888;28;20029;-77
2022/02/02 04:06:18;;;;;;;20.88;11.98;;;;;;;0.61;71.11;94425.19;5032926;28;20044;-77
2022/02/02 04:08:44;;;;;;;24.60;13.27;;;;;;;0.48;72.21;94417.56;5046136;28;20706;-75
2022/02/02 04:11:17;;;;;;;23.40;13.00;;;;;;;0.53;71.00;94412.69;5048303;28;20495;-76
2022/02/02 04:52:16;;;;;;;24.02;13.05;;;;;;;0.09;72.50;94447.38;5046279;28;20501;-77
2022/02/02 04:54:53;;;;;;;23.85;12.60;;;;;;;0.01;72.64;94439.31;5045871;28;20390;-77
2022/02/02 04:57:55;;;;;;;27.27;14.00;;;;;;;0.01;72.86;94439.31;5045247;28;20106;-77
2022/02/02 05:16:24;;;;;;;30.20;13.07;;;;;;;-0.07;72.35;94448.75;5046941;28;20037;-75
2022/02/02 05:53:08;;;;;;;27.40;15.40;;;;;;;0.17;73.71;94479.19;5027837;28;20036;-76
2022/02/02 05:55:37;;;;;;;30.50;15.40;;;;;;;0.28;73.69;94480.84;5028021;28;20025;-78
2022/02/02 05:58:03;;;;;;;23.88;14.02;;;;;;;0.35;72.71;94478.50;5028243;28;20029;-78
2022/02/02 06:00:28;;;;;;;25.13;14.93;;;;;;;0.29;73.45;94474.59;5027586;28;20040;-76
2022/02/02 06:02:56;;;;;;;26.10;13.50;;;;;;;0.30;72.73;94471.00;5011915;28;20048;-75
2022/02/02 06:05:22;;;;;;;27.05;14.38;;;;;;;0.30;73.25;94473.66;5027457;28;20415;-76
2022/02/02 06:07:52;;;;;;;33.75;14.68;;;;;;;0.30;73.13;94478.06;5028218;28;20124;-76
2022/02/02 06:10:18;;;;;;;26.42;14.65;;;;;;;0.31;73.38;94472.66;5028334;28;20381;-78
2022/02/02 06:12:44;;;;;;;28.67;15.30;;;;;;;0.31;73.01;94479.72;5045851;28;20048;-76
2022/02/02 06:15:13;;;;;;;27.85;14.50;;;;;;;0.26;72.95;94485.41;5044161;28;20039;-76
2022/02/02 06:17:40;;;;;;;28.30;15.52;;;;;;;0.20;73.78;94492.09;5045486;28;20029;-77
2022/02/02 06:20:07;;;;;;;29.35;13.95;;;;;;;0.17;73.94;94496.78;5045815;28;20036;-76
2022/02/02 06:22:32;;;;;;;30.20;15.18;;;;;;;0.22;74.17;94494.59;5028724;28;20403;-76
2022/02/02 06:25:10;;;;;;;26.48;14.32;;;;;;;0.18;74.00;94503.75;5032070;28;20025;-76
2022/02/02 06:27:41;;;;;;;28.08;15.32;;;;;;;0.24;73.14;94513.75;5031855;28;20521;-77
2022/02/02 06:30:08;;;;;;;28.80;15.68;;;;;;;0.29;73.73;94506.25;5049466;28;20036;-76
2022/02/02 06:32:37;;;;;;;31.27;15.60;;;;;;;0.22;73.62;94510.41;5031512;28;20040;-77
2022/02/02 06:35:04;;;;;;;31.27;15.90;;;;;;;0.25;74.10;94504.88;5048808;28;20025;-76
2022/02/02 06:37:29;;;;;;;32.28;15.80;;;;;;;0.34;73.16;94509.31;5049820;28;20058;-76
2022/02/02 06:39:55;;;;;;;29.52;15.70;;;;;;;0.34;73.49;94506.69;5047364;28;20033;-76
2022/02/02 06:42:20;;;;;;;34.78;17.15;;;;;;;0.39;73.59;94508.91;5048591;28;20039;-78
2022/02/02 06:44:46;;;;;;;32.40;17.30;;;;;;;0.35;73.33;94515.44;5030656;28;20063;-76
2022/02/02 06:47:12;;;;;;;33.70;16.40;;;;;;;0.40;73.27;94517.66;5047717;28;20458;-77
2022/02/02 06:49:39;;;;;;;33.20;18.20;;;;;;;0.46;73.03;94522.38;5031039;28;20036;-77
2022/02/02 06:52:12;;;;;;;29.73;16.63;;;;;;;0.47;73.08;94518.75;5047309;28;20051;-77
2022/02/02 06:54:50;;;;;;;33.47;18.13;;;;;;;0.49;72.96;94522.09;5032633;28;20377;-77
2022/02/02 06:57:26;;;;;;;32.10;16.52;;;;;;;0.55;72.34;94508.34;5030835;28;20044;-76
2022/02/02 07:21:40;;;;;;;32.95;16.20;;;;;;;0.55;71.68;94532.13;5032453;28;20499;-77
2022/02/02 07:32:42;;;;;;;25.40;15.15;;;;;;;0.49;71.56;94522.09;5046865;28;20040;-77
2022/02/02 07:35:11;;;;;;;28.42;16.17;;;;;;;0.55;71.47;94515.47;5050202;28;20036;-79
2022/02/02 07:37:57;;;;;;;25.48;13.88;;;;;;;0.51;71.16;94525.44;5048876;28;20021;-78
2022/02/02 07:40:23;;;;;;;27.80;14.07;;;;;;;0.58;71.26;94521.28;5047323;28;20041;-77
2022/02/02 07:42:50;;;;;;;26.38;13.70;;;;;;;0.63;70.60;94528.78;5047488;28;20036;-78
2022/02/02 07:45:17;;;;;;;28.85;14.18;;;;;;;0.67;70.60;94532.81;5046146;28;20021;-78
2022/02/02 07:47:49;;;;;;;30.42;14.45;;;;;;;0.67;69.05;94529.34;5030329;28;20025;-76
2022/02/02 07:50:14;;;;;;;23.70;14.20;;;;;;;0.76;68.11;94523.22;5045971;28;20549;-77
2022/02/02 07:52:42;;;;;;;23.15;13.32;;;;;;;0.80;68.48;94526.44;5047885;28;20123;-76
2022/02/02 07:55:09;;;;;;;27.73;14.25;;;;;;;0.96;67.75;94517.94;5030728;28;20029;-77
2022/02/02 07:57:36;;;;;;;26.05;13.90;;;;;;;1.06;68.44;94513.50;5045705;28;20426;-76
2022/02/02 08:00:06;;;;;;;22.58;13.48;;;;;;;1.10;66.62;94520.16;5047130;28;20039;-77
2022/02/02 08:05:01;;;;;;;21.17;12.27;;;;;;;1.18;64.76;94510.69;5046476;28;20052;-78
2022/02/02 08:07:32;;;;;;;23.55;13.05;;;;;;;1.27;65.29;94509.84;5047303;28;20506;-77
2022/02/02 08:10:12;;;;;;;27.65;12.95;;;;;;;1.44;64.03;94510.91;5030527;28;20036;-77
2022/02/02 08:12:50;;;;;;;23.35;12.68;;;;;;;1.47;63.23;94515.91;5047955;28;20055;-78
2022/02/02 08:15:17;;;;;;;22.67;12.63;;;;;;;1.57;62.99;94513.25;5030587;28;20036;-77
2022/02/02 08:17:44;;;;;;;26.13;12.65;;;;;;;1.58;62.18;94512.25;5030197;28;20037;-76
2022/02/02 08:20:10;;;;;;;18.67;11.10;;;;;;;1.36;62.52;94505.50;5029422;28;20064;-78
2022/02/02 08:22:38;;;;;;;22.67;12.32;;;;;;;1.54;62.35;94512.69;5029562;28;20163;-79
2022/02/02 08:25:22;;;;;;;26.02;12.25;;;;;;;1.56;62.49;94510.75;5030139;28;20029;-79
2022/02/02 08:27:48;;;;;;;;;;;;;;;1.63;61.95;94508.38;5030787;28;20490;-77
2022/02/02 08:30:15;;;;;;;21.05;11.10;;;;;;;1.59;61.70;94513.09;5046955;28;19912;-77
2022/02/02 08:32:47;;;;;;;20.35;11.80;;;;;;;1.67;61.09;94522.94;5028918;28;20104;-78
2022/02/02 08:35:13;;;;;;;26.40;12.85;;;;;;;1.63;61.05;94526.88;5046278;28;20025;-79
2022/02/02 08:37:45;;;;;;;24.35;12.32;;;;;;;1.61;61.77;94532.31;5045460;28;20068;-77
2022/02/02 08:42:52;;;;;;;22.30;11.80;;;;;;;1.35;61.41;94536.38;5047905;28;20069;-77
2022/02/02 08:45:27;;;;;;;20.02;11.40;;;;;;;1.39;61.66;94529.00;5045960;28;20025;-79
2022/02/02 08:48:02;;;;;;;27.85;12.43;;;;;;;1.40;61.67;94522.75;5047643;28;20029;-75
2022/02/02 08:59:08;;;;;;;23.25;11.48;;;;;;;1.62;60.92;94518.09;5021138;28;20120;-76
2022/02/02 09:01:35;;;;;;;24.02;11.60;;;;;;;1.52;60.81;94510.19;5044096;28;20033;-77
2022/02/02 09:06:45;;;;;;;33.88;13.32;;;;;;;1.71;60.43;94511.09;5045858;28;20063;-78
2022/02/02 09:09:20;;;;;;;24.70;11.13;;;;;;;1.82;59.77;94513.56;5045696;28;20017;-80
2022/02/02 09:20:10;;;;;;;26.45;13.00;;;;;;;1.87;59.38;94518.41;5044648;28;20036;-80
2022/02/02 09:25:37;;;;;;;21.88;11.07;;;;;;;1.76;59.82;94516.78;5045007;28;20043;-78
2022/02/02 09:36:11;;;;;;;21.00;10.90;;;;;;;1.93;59.91;94520.50;5046333;28;20070;-77
2022/02/02 09:38:36;;;;;;;22.40;10.13;;;;;;;1.92;59.40;94512.69;5028735;28;20063;-78
2022/02/02 09:41:27;;;;;;;21.20;10.32;;;;;;;1.76;59.88;94516.78;5044198;28;20028;-77
2022/02/02 09:43:56;;;;;;;24.58;10.48;;;;;;;1.76;59.07;94508.84;5045410;28;20036;-77
2022/02/02 09:46:26;;;;;;;20.90;10.38;;;;;;;1.79;58.94;94519.13;5045627;28;20488;-77
2022/02/02 09:48:56;;;;;;;20.23;10.02;;;;;;;1.73;59.58;94519.72;5044393;28;20029;-77
2022/02/02 09:51:31;;;;;;;18.50;10.45;;;;;;;1.81;59.59;94505.78;5044685;28;20040;-78
2022/02/02 09:54:02;;;;;;;18.73;10.82;;;;;;;1.87;59.62;94509.66;5028863;28;20028;-77
2022/02/02 10:05:15;;;;;;;22.10;10.60;;;;;;;1.77;58.55;94488.53;5052867;28;20071;-77
2022/02/02 10:15:27;;;;;;;20.88;11.25;;;;;;;1.98;57.43;94490.97;5052529;28;20025;-79
2022/02/02 10:18:04;;;;;;;21.38;11.55;;;;;;;1.99;57.79;94479.38;5035192;28;20103;-77
2022/02/02 10:20:30;;;;;;;20.02;10.15;;;;;;;2.07;57.76;94482.13;5050655;28;20157;-81
2022/02/02 10:22:57;;;;;;;15.80;9.75;;;;;;;2.10;57.49;94487.13;5035034;28;20082;-78
2022/02/02 10:25:40;;;;;;;21.67;11.05;;;;;;;2.15;57.39;94486.69;5050598;28;20404;-76
2022/02/02 10:28:06;;;;;;;18.92;10.88;;;;;;;2.09;57.43;94487.28;5050749;28;20108;-80
2022/02/02 10:30:32;;;;;;;17.70;8.98;;;;;;;2.19;57.61;94501.25;5052850;28;20154;-79
2022/02/02 10:32:58;;;;;;;19.27;9.43;;;;;;;2.25;56.61;94491.91;5050487;28;20509;-78
2022/02/02 10:35:32;;;;;;;19.38;10.10;;;;;;;2.21;57.30;94495.81;5018605;28;20029;-80
2022/02/02 10:37:59;;;;;;;22.48;10.20;;;;;;;2.34;57.03;94491.00;5050170;28;20036;-81
2022/02/02 10:40:48;;;;;;;19.67;10.75;;;;;;;2.40;56.64;94489.56;5034897;28;20025;-76
2022/02/02 10:43:40;;;;;;;18.90;10.55;;;;;;;2.50;55.80;94489.50;5052023;28;20060;-77
2022/02/02 10:46:14;;;;;;;21.35;10.30;;;;;;;2.54;55.71;94495.34;5051090;28;20066;-76
2022/02/02 10:48:51;;;;;;;21.02;9.75;;;;;;;2.51;56.12;94495.63;5052996;28;20025;-80
2022/02/02 10:51:25;;;;;;;16.80;9.25;;;;;;;2.64;55.48;94490.81;5050461;28;20044;-78
2022/02/02 10:56:34;;;;;;;14.65;9.55;;;;;;;2.81;54.57;94475.06;5050855;28;20032;-76
2022/02/02 11:06:36;;;;;;;18.98;9.25;;;;;;;2.80;55.12;94474.25;5051623;28;20183;-78
2022/02/02 11:07:16;;;;;;;21.23;9.55;;;;;;;2.88;54.79;94488.53;5050097;28;20056;-79
2022/02/02 11:09:44;;;;;;;18.08;9.40;;;;;;;2.91;54.22;94475.81;5048311;28;20037;-76
2022/02/02 11:12:10;;;;;;;20.48;10.05;;;;;;;2.73;54.44;94481.13;5030289;28;20039;-78
2022/02/02 11:14:57;;;;;;;23.27;9.30;;;;;;;2.96;54.68;94472.69;5014912;28;20029;-78
2022/02/02 11:17:24;;;;;;;15.63;9.48;;;;;;;3.03;54.33;94479.03;5031952;28;20033;-78
2022/02/02 11:20:01;;;;;;;18.80;9.48;;;;;;;3.15;54.07;94470.84;5047266;28;20052;-80
2022/02/02 11:22:31;;;;;;;18.50;9.50;;;;;;;3.24;53.67;94469.91;5047247;28;20455;-78
2022/02/02 11:25:22;;;;;;;18.00;9.05;;;;;;;3.25;53.46;94463.63;5046685;28;20025;-81
2022/02/02 11:27:49;;;;;;;19.27;9.52;;;;;;;3.25;53.74;94462.78;5048285;28;20041;-79
2022/02/02 11:30:23;;;;;;;18.38;10.02;;;;;;;3.34;53.44;94457.41;5046561;28;20025;-76
2022/02/02 11:32:52;;;;;;;15.23;9.68;;;;;;;3.31;53.48;94447.09;5048429;28;20552;-78
2022/02/02 11:35:58;;;;;;;16.52;9.18;;;;;;;3.28;53.93;94436.81;5046758;28;20036;-79
2022/02/02 11:38:24;;;;;;;20.90;9.48;;;;;;;3.34;53.73;94444.16;5033408;28;20029;-78
2022/02/02 11:44:11;;;;;;;18.42;9.55;;;;;;;3.34;53.21;94440.66;5056332;28;20071;-76
2022/02/02 11:49:58;;;;;;;16.17;8.73;;;;;;;3.42;53.69;94442.50;5024883;28;20039;-77
2022/02/02 11:52:51;;;;;;;16.77;9.77;;;;;;;3.34;53.85;94438.00;5046844;28;20106;-76
2022/02/02 11:55:16;;;;;;;20.05;10.23;;;;;;;3.39;53.48;94437.53;5047400;28;20059;-78
2022/02/02 11:57:51;;;;;;;20.50;9.13;;;;;;;3.30;53.72;94434.84;5048264;28;20041;-77
2022/02/02 12:00:27;;;;;;;19.40;10.05;;;;;;;3.23;54.24;94431.16;5045791;28;20083;-77
2022/02/02 12:05:57;;;;;;;15.88;9.07;;;;;;;3.44;54.06;94425.47;5048251;28;20163;-77
2022/02/02 12:28:01;;;;;;;19.67;9.65;;;;;;;4.28;51.63;94439.03;5048017;28;20053;-76
2022/02/02 12:57:37;;;;;;;18.50;10.88;;;;;;;5.75;48.51;94445.47;5045722;28;20043;-79
2022/02/02 13:00:07;;;;;;;20.83;10.88;;;;;;;5.85;49.48;94447.91;5045458;28;20025;-79
2022/02/02 13:02:35;;;;;;;17.08;10.07;;;;;;;6.03;47.09;94439.69;5045885;28;20102;-79
2022/02/02 13:05:01;;;;;;;17.48;9.90;;;;;;;5.94;46.42;94438.91;5046370;28;20029;-80
2022/02/02 13:07:28;;;;;;;21.23;10.07;;;;;;;5.92;47.23;94440.91;5029110;28;20091;-76
2022/02/02 13:09:53;;;;;;;18.42;10.35;;;;;;;6.01;46.06;94432.88;5028344;28;20515;-78
2022/02/02 13:13:09;;;;;;;17.75;10.30;;;;;;;6.02;47.55;94438.03;5028811;28;20024;-78
2022/02/02 13:25:44;;;;;;;19.03;10.70;;;;;;;6.29;45.42;94435.09;5029004;28;20033;-77
2022/02/02 13:28:10;;;;;;;22.90;10.65;;;;;;;6.24;46.40;94430.28;5029371;28;20104;-79
2022/02/02 13:30:53;;;;;;;19.10;10.93;;;;;;;6.24;45.76;94437.47;5027819;28;20110;-79
2022/02/02 13:33:33;;;;;;;18.10;10.43;;;;;;;6.40;45.89;94420.56;5045661;28;20021;-78
2022/02/02 13:36:33;;;;;;;23.63;11.30;;;;;;;6.32;46.46;94428.59;5044494;28;20037;-77
2022/02/02 13:47:42;;;;;;;26.23;12.48;;;;;;;6.15;45.19;94429.53;5045213;28;20083;-77
2022/02/02 13:53:34;;;;;;;29.73;13.02;;;;;;;6.32;44.68;94425.94;5044273;28;20028;-78
2022/02/02 14:33:30;;;;;;;30.88;15.07;;;;;;;4.91;47.99;94415.53;5045209;28;20028;-76
2022/02/02 14:36:01;;;;;;;23.92;12.98;;;;;;;4.98;48.45;94423.66;5043600;28;20029;-76
2022/02/02 14:38:33;;;;;;;28.75;14.43;;;;;;;5.05;47.65;94429.97;5044668;28;20029;-76
2022/02/02 14:41:15;;;;;;;25.35;13.73;;;;;;;5.01;47.39;94423.34;5044225;28;20048;-78
2022/02/02 14:46:18;;;;;;;25.17;13.50;;;;;;;4.87;47.52;94427.47;5049701;28;20033;-77
2022/02/02 14:48:57;;;;;;;26.60;13.45;;;;;;;4.80;48.60;94422.00;5047501;28;20100;-76
2022/02/02 14:54:04;;;;;;;22.83;13.32;;;;;;;4.59;48.86;94419.84;5048969;28;20419;-77
2022/02/02 15:28:04;;;;;;;18.30;10.65;;;;;;;3.43;50.62;94444.19;5046942;28;20036;-78
2022/02/02 15:33:16;;;;;;;22.25;11.13;;;;;;;3.34;51.25;94443.31;5047123;28;20058;-77
2022/02/02 15:35:43;;;;;;;17.75;9.48;;;;;;;3.16;51.54;94446.84;5030639;28;20041;-78
2022/02/02 15:38:17;;;;;;;20.17;10.48;;;;;;;3.13;51.81;94455.09;5047183;28;20488;-76
2022/02/02 15:40:50;;;;;;;20.13;10.43;;;;;;;3.06;52.25;94452.22;5046688;28;20147;-75
2022/02/02 15:59:11;;;;;;;19.13;10.02;;;;;;;2.94;54.10;94474.66;5048034;28;20041;-78
2022/02/02 16:04:33;;;;;;;15.68;9.07;;;;;;;2.89;53.78;94474.28;5054048;28;20129;-78
2022/02/02 16:07:03;;;;;;;14.15;7.88;;;;;;;3.01;53.45;94481.03;5047279;28;20056;-78
2022/02/02 16:09:37;;;;;;;16.30;8.85;;;;;;;2.93;53.94;94478.31;5030208;28;20040;-77
2022/02/02 16:12:09;;;;;;;17.67;8.10;;;;;;;2.96;53.97;94476.19;5046504;28;20419;-76
2022/02/02 16:15:00;;;;;;;21.58;9.23;;;;;;;2.89;53.39;94479.59;5030348;28;20392;-77
2022/02/02 16:36:20;;;;;;;17.42;10.50;;;;;;;2.69;54.89;94511.53;5041517;28;20472;-77
2022/02/02 16:38:58;;;;;;;28.23;10.93;;;;;;;2.56;55.39;94525.16;5046157;28;20025;-77
2022/02/02 16:44:08;;;;;;;18.20;9.23;;;;;;;2.53;54.98;94505.09;5046519;28;20036;-77
2022/02/02 16:46:33;;;;;;;19.77;9.93;;;;;;;2.62;54.38;94513.13;5045508;28;20021;-78
2022/02/02 16:48:58;;;;;;;16.48;8.68;;;;;;;2.62;54.50;94518.41;5045622;28;20025;-78
2022/02/02 16:51:24;;;;;;;15.02;8.45;;;;;;;2.63;54.12;94514.81;5047295;28;20032;-77
2022/02/02 16:53:51;;;;;;;19.75;8.95;;;;;;;2.63;53.72;94520.09;5046152;28;20025;-77
2022/02/02 17:31:22;;;;;;;11.73;6.78;;;;;;;2.12;54.25;94536.41;5045627;28;20109;-76
2022/02/02 17:33:55;;;;;;;15.43;6.40;;;;;;;2.16;54.95;94541.25;5045947;28;20029;-77
2022/02/02 17:36:30;;;;;;;17.08;6.53;;;;;;;2.17;54.42;94550.88;5046183;28;20056;-76
2022/02/02 17:39:10;;;;;;;13.30;7.25;;;;;;;2.13;54.71;94548.66;5029871;28;20025;-76
2022/02/02 17:45:05;;;;;;;12.60;6.28;;;;;;;2.05;54.85;94550.22;5031523;28;20120;-77
2022/02/02 18:16:04;;;;;;;11.93;6.55;;;;;;;1.73;55.85;94577.88;5046192;28;20082;-77
2022/02/02 18:19:49;;;;;;;14.82;7.03;;;;;;;1.79;55.50;94587.06;5051783;28;20071;-78
2022/02/02 18:22:16;;;;;;;12.25;6.00;;;;;;;1.75;55.01;94599.72;5050162;28;20029;-78
2022/02/02 18:27:35;;;;;;;13.20;6.13;;;;;;;1.73;56.00;94594.59;5050217;28;20502;-78
2022/02/02 18:30:16;;;;;;;11.85;6.43;;;;;;;1.78;56.13;94594.16;5049011;28;20021;-78
2022/02/02 18:33:16;;;;;;;13.23;6.43;;;;;;;1.82;55.31;94589.44;5033770;28;20098;-77
2022/02/02 18:35:34;;;;;;;12.40;6.05;;;;;;;1.74;55.33;94595.44;5048859;28;20606;-77
2022/02/02 18:48:50;;;;;;;12.95;7.40;;;;;;;1.43;56.76;94606.19;5049004;28;20086;-79
2022/02/02 18:54:21;;;;;;;12.88;7.05;;;;;;;1.43;57.59;94619.41;5047473;28;20076;-76
2022/02/02 18:57:00;;;;;;;10.20;6.40;;;;;;;1.48;57.58;94614.53;5048432;28;20112;-79
2022/02/02 19:31:08;;;;;;;9.63;5.53;;;;;;;1.10;60.21;94643.44;5048184;28;20044;-78
2022/02/02 19:37:14;;;;;;;14.07;6.20;;;;;;;0.90;60.79;94645.25;5048040;28;20040;-77
2022/02/02 19:56:20;;;;;;;9.52;5.20;;;;;;;0.85;62.95;94675.53;5047602;28;20518;-76
2022/02/02 20:04:38;;;;;;;11.68;5.70;;;;;;;0.86;63.59;94673.72;5046330;28;20104;-78
2022/02/02 20:12:04;;;;;;;11.45;5.65;;;;;;;0.94;63.16;94670.41;5046661;28;20111;-77
2022/02/02 20:14:29;;;;;;;10.63;5.60;;;;;;;0.98;62.89;94669.97;5046723;28;20029;-76
2022/02/02 20:16:54;;;;;;;13.20;6.82;;;;;;;1.01;62.86;94671.53;5047131;28;20032;-75
2022/02/02 20:19:20;;;;;;;13.10;6.70;;;;;;;1.02;62.69;94670.56;5046791;28;20102;-77
2022/02/02 20:21:50;;;;;;;12.60;6.82;;;;;;;0.97;63.34;94668.31;5045565;28;20063;-77
2022/02/02 20:24:15;;;;;;;12.23;6.65;;;;;;;0.90;63.99;94661.09;5047900;28;20519;-75
2022/02/02 20:26:46;;;;;;;13.10;6.55;;;;;;;0.88;63.24;94663.03;5045711;28;20028;-76
2022/02/02 20:29:13;;;;;;;12.50;6.65;;;;;;;0.91;63.47;94665.38;5014453;28;20491;-75
2022/02/02 20:31:38;;;;;;;11.40;6.45;;;;;;;0.98;62.83;94663.88;5046125;28;20091;-76
2022/02/02 20:34:04;;;;;;;10.50;6.07;;;;;;;1.00;63.10;94675.13;5047022;28;20025;-76
2022/02/02 20:36:29;;;;;;;9.95;6.18;;;;;;;0.94;62.91;94673.88;5046271;28;20036;-76
2022/02/02 20:38:55;;;;;;;11.63;6.07;;;;;;;0.83;62.26;94666.91;5046686;28;20032;-78
2022/02/02 20:41:20;;;;;;;11.25;5.43;;;;;;;0.74;62.24;94670.38;5046684;28;20028;-76
2022/02/02 20:43:55;;;;;;;9.93;5.75;;;;;;;0.71;63.00;94670.66;5028780;28;20033;-77
2022/02/02 21:10:29;;;;;;;14.70;7.43;;;;;;;0.25;63.14;94684.22;5030328;28;20036;-76
2022/02/02 21:15:39;;;;;;;14.27;7.20;;;;;;;0.22;63.34;94685.34;5046955;28;20086;-76
2022/02/02 21:18:17;;;;;;;12.27;6.85;;;;;;;0.21;62.88;94690.75;5044556;28;20552;-76
2022/02/02 21:21:02;;;;;;;14.00;6.60;;;;;;;0.21;63.17;94685.47;5045488;28;20483;-77
2022/02/02 21:23:39;;;;;;;11.68;6.75;;;;;;;0.19;62.87;94685.59;5045610;28;20037;-76
2022/02/02 21:28:30;;;;;;;13.10;6.95;;;;;;;0.14;63.12;94705.41;5045563;28;20040;-77
2022/02/02 21:30:55;;;;;;;12.95;7.35;;;;;;;-0.03;64.02;94697.09;5044319;28;20020;-76
2022/02/02 21:33:21;;;;;;;11.02;6.63;;;;;;;-0.02;63.88;94701.44;5046686;28;20404;-76
2022/02/02 21:35:49;;;;;;;15.38;7.82;;;;;;;-0.01;64.56;94709.22;5044555;28;20502;-76
2022/02/02 21:38:22;;;;;;;14.82;7.88;;;;;;;-0.16;64.18;94703.44;5046179;28;20029;-75
2022/02/02 21:40:52;;;;;;;15.38;7.50;;;;;;;0.00;63.70;94710.06;5044878;28;20025;-75
2022/02/02 21:43:18;;;;;;;14.18;8.70;;;;;;;-0.01;64.55;94711.00;5044549;28;20106;-75
2022/02/02 21:45:44;;;;;;;12.70;7.05;;;;;;;0.02;63.69;94710.75;5046628;28;20449;-76
2022/02/02 21:48:09;;;;;;;13.80;7.70;;;;;;;-0.02;64.15;94710.16;5044275;28;20036;-76
2022/02/02 21:50:46;;;;;;;19.92;7.93;;;;;;;0.06;63.71;94706.06;5046467;28;20415;-77
2022/02/02 21:53:11;;;;;;;15.70;7.97;;;;;;;0.09;63.69;94711.91;5029205;28;20029;-76
2022/02/02 21:55:37;;;;;;;14.57;7.82;;;;;;;0.21;63.56;94709.19;5044823;28;20334;-76
2022/02/02 21:58:02;;;;;;;14.93;7.75;;;;;;;0.21;63.11;94702.09;5044730;28;20033;-76
2022/02/02 22:00:28;;;;;;;11.43;6.60;;;;;;;0.16;63.35;94701.66;5027888;28;20487;-76
2022/02/02 22:02:53;;;;;;;12.82;7.05;;;;;;;0.08;63.41;94704.94;5046295;28;20029;-76
2022/02/02 22:05:19;;;;;;;13.52;7.15;;;;;;;0.04;64.08;94713.25;5045473;28;20425;-76
2022/02/02 22:07:45;;;;;;;14.13;7.00;;;;;;;-0.05;64.53;94712.25;5044754;28;20060;-75
2022/02/02 22:10:10;;;;;;;12.65;7.28;;;;;;;0.03;64.55;94709.81;5043909;28;20061;-76
2022/02/02 22:12:38;;;;;;;12.18;6.75;;;;;;;-0.02;64.63;94706.72;5046351;28;20094;-79
2022/02/02 22:15:29;;;;;;;15.50;7.07;;;;;;;-0.07;64.68;94708.91;5028059;28;20025;-76
2022/02/02 22:17:55;;;;;;;14.98;7.03;;;;;;;-0.23;65.24;94712.81;5044460;28;20043;-76
2022/02/02 22:20:20;;;;;;;14.63;7.10;;;;;;;-0.19;65.27;94708.97;5046517;28;20021;-76
2022/02/02 22:22:47;;;;;;;11.15;6.32;;;;;;;-0.07;65.02;94717.66;5044032;28;20036;-75
2022/02/02 22:25:12;;;;;;;11.45;6.88;;;;;;;-0.23;65.88;94723.38;5044797;28;20560;-75
2022/02/02 22:27:38;;;;;;;14.02;7.05;;;;;;;-0.15;65.78;94720.94;5027662;28;20033;-75
2022/02/02 22:30:04;;;;;;;13.68;6.97;;;;;;;-0.21;66.26;94721.41;5044383;28;20100;-75
2022/02/02 22:32:29;;;;;;;11.00;6.32;;;;;;;-0.35;66.81;94725.22;5044264;28;20111;-76
2022/02/02 22:34:55;;;;;;;10.48;6.22;;;;;;;-0.26;66.59;94734.16;5027663;28;20021;-75
2022/02/02 22:37:21;;;;;;;13.13;7.10;;;;;;;-0.25;66.90;94730.56;5044656;28;20032;-76
2022/02/02 22:39:48;;;;;;;13.50;7.43;;;;;;;-0.23;66.80;94727.78;5045251;28;20099;-76
2022/02/02 22:42:15;;;;;;;12.57;7.00;;;;;;;-0.27;67.41;94733.31;5044744;28;20063;-76